sensor_id;sensor_type;location;lat;lon;timestamp;pressure;altitude;pressure_sealevel;temperature;humidity
80180;BME280;69505;52.134;5.438;2023-06-10T00:00:47;101621.78;;;18.38;60.81
80180;BME280;69505;52.134;5.438;2023-06-10T00:03:13;101617.25;;;18.39;59.95
80180;BME280;69505;52.134;5.438;2023-06-10T00:05:41;101615.84;;;18.35;59.90
80180;BME280;69505;52.134;5.438;2023-06-10T00:08:07;101615.47;;;18.30;59.76
80180;BME280;69505;52.134;5.438;2023-06-10T00:10:35;101620.53;;;18.33;59.93
80180;BME280;69505;52.134;5.438;2023-06-10T00:13:03;101624.94;;;18.34;59.00
80180;BME280;69505;52.134;5.438;2023-06-10T00:15:30;101625.53;;;18.28;59.48
80180;BME280;69505;52.134;5.438;2023-06-10T00:17:57;101628.66;;;18.23;59.41
80180;BME280;69505;52.134;5.438;2023-06-10T00:20:24;101624.50;;;18.29;59.79
80180;BME280;69505;52.134;5.438;2023-06-10T00:22:51;101622.97;;;18.26;59.72
80180;BME280;69505;52.134;5.438;2023-06-10T00:25:18;101622.59;;;18.21;59.46
80180;BME280;69505;52.134;5.438;2023-06-10T00:27:45;101629.78;;;18.20;58.87
80180;BME280;69505;52.134;5.438;2023-06-10T00:30:12;101619.66;;;18.14;58.87
80180;BME280;69505;52.134;5.438;2023-06-10T00:32:39;101630.09;;;18.17;58.17
80180;BME280;69505;52.134;5.438;2023-06-10T00:35:06;101627.00;;;18.12;59.32
80180;BME280;69505;52.134;5.438;2023-06-10T00:37:34;101631.00;;;18.08;57.63
80180;BME280;69505;52.134;5.438;2023-06-10T00:40:03;101630.28;;;18.06;58.75
80180;BME280;69505;52.134;5.438;2023-06-10T00:42:29;101632.69;;;17.99;58.52
80180;BME280;69505;52.134;5.438;2023-06-10T00:44:56;101635.56;;;17.98;57.77
80180;BME280;69505;52.134;5.438;2023-06-10T00:47:23;101640.03;;;18.07;57.45
80180;BME280;69505;52.134;5.438;2023-06-10T00:49:50;101641.19;;;18.04;57.08
80180;BME280;69505;52.134;5.438;2023-06-10T00:52:18;101641.03;;;18.06;56.57
80180;BME280;69505;52.134;5.438;2023-06-10T00:54:46;101636.66;;;18.05;56.35
80180;BME280;69505;52.134;5.438;2023-06-10T00:57:13;101634.28;;;18.02;56.73
80180;BME280;69505;52.134;5.438;2023-06-10T00:59:41;101632.88;;;17.98;56.34
80180;BME280;69505;52.134;5.438;2023-06-10T01:02:09;101631.16;;;17.97;57.31
80180;BME280;69505;52.134;5.438;2023-06-10T01:04:36;101641.38;;;17.93;56.38
80180;BME280;69505;52.134;5.438;2023-06-10T01:07:30;101633.44;;;17.92;56.48
80180;BME280;69505;52.134;5.438;2023-06-10T01:10:15;101639.53;;;17.94;56.54
80180;BME280;69505;52.134;5.438;2023-06-10T01:13:02;101635.72;;;17.87;57.48
80180;BME280;69505;52.134;5.438;2023-06-10T01:15:30;101634.19;;;17.84;56.63
80180;BME280;69505;52.134;5.438;2023-06-10T01:18:01;101636.13;;;17.82;57.28
80180;BME280;69505;52.134;5.438;2023-06-10T01:20:30;101638.41;;;17.77;56.89
80180;BME280;69505;52.134;5.438;2023-06-10T01:22:59;101644.06;;;17.74;57.62
80180;BME280;69505;52.134;5.438;2023-06-10T01:25:27;101638.56;;;17.75;57.12
80180;BME280;69505;52.134;5.438;2023-06-10T01:33:47;101641.97;;;17.68;57.20
80180;BME280;69505;52.134;5.438;2023-06-10T01:36:17;101647.78;;;17.63;58.20
80180;BME280;69505;52.134;5.438;2023-06-10T01:38:46;101635.63;;;17.59;57.96
80180;BME280;69505;52.134;5.438;2023-06-10T01:41:16;101642.56;;;17.52;57.79
80180;BME280;69505;52.134;5.438;2023-06-10T01:43:44;101628.69;;;17.47;57.36
80180;BME280;69505;52.134;5.438;2023-06-10T01:46:11;101648.50;;;17.45;58.32
80180;BME280;69505;52.134;5.438;2023-06-10T01:48:38;101640.72;;;17.42;58.33
80180;BME280;69505;52.134;5.438;2023-06-10T01:51:05;101641.28;;;17.36;58.86
80180;BME280;69505;52.134;5.438;2023-06-10T01:53:32;101641.03;;;17.39;58.25
80180;BME280;69505;52.134;5.438;2023-06-10T01:55:58;101642.16;;;17.37;58.84
80180;BME280;69505;52.134;5.438;2023-06-10T01:58:25;101644.16;;;17.35;59.20
80180;BME280;69505;52.134;5.438;2023-06-10T02:00:52;101642.44;;;17.34;59.09
80180;BME280;69505;52.134;5.438;2023-06-10T02:03:18;101642.72;;;17.31;58.97
80180;BME280;69505;52.134;5.438;2023-06-10T02:05:45;101648.38;;;17.28;59.50
80180;BME280;69505;52.134;5.438;2023-06-10T02:08:11;101654.31;;;17.21;59.47
80180;BME280;69505;52.134;5.438;2023-06-10T02:10:38;101643.88;;;17.18;59.45
80180;BME280;69505;52.134;5.438;2023-06-10T02:13:05;101645.72;;;17.18;61.05
80180;BME280;69505;52.134;5.438;2023-06-10T02:15:32;101645.00;;;17.16;60.14
80180;BME280;69505;52.134;5.438;2023-06-10T02:17:59;101647.38;;;17.09;59.80
80180;BME280;69505;52.134;5.438;2023-06-10T02:20:26;101655.16;;;17.02;61.16
80180;BME280;69505;52.134;5.438;2023-06-10T02:22:53;101650.50;;;16.95;61.54
80180;BME280;69505;52.134;5.438;2023-06-10T02:25:19;101656.97;;;16.92;62.72
80180;BME280;69505;52.134;5.438;2023-06-10T02:27:46;101648.22;;;16.90;61.63
80180;BME280;69505;52.134;5.438;2023-06-10T02:30:12;101664.31;;;16.90;62.26
80180;BME280;69505;52.134;5.438;2023-06-10T02:32:40;101667.28;;;16.87;62.16
80180;BME280;69505;52.134;5.438;2023-06-10T02:35:07;101664.19;;;16.82;62.67
80180;BME280;69505;52.134;5.438;2023-06-10T02:37:34;101676.47;;;16.84;62.03
80180;BME280;69505;52.134;5.438;2023-06-10T02:40:01;101669.78;;;16.79;62.79
80180;BME280;69505;52.134;5.438;2023-06-10T02:42:27;101664.97;;;16.73;62.61
80180;BME280;69505;52.134;5.438;2023-06-10T02:44:54;101667.50;;;16.74;63.18
80180;BME280;69505;52.134;5.438;2023-06-10T02:47:20;101666.22;;;16.69;63.29
80180;BME280;69505;52.134;5.438;2023-06-10T02:49:47;101669.19;;;16.66;63.59
80180;BME280;69505;52.134;5.438;2023-06-10T02:52:14;101671.28;;;16.62;63.98
80180;BME280;69505;52.134;5.438;2023-06-10T02:54:40;101669.44;;;16.62;64.15
80180;BME280;69505;52.134;5.438;2023-06-10T02:57:08;101664.50;;;16.58;63.74
80180;BME280;69505;52.134;5.438;2023-06-10T02:59:36;101664.63;;;16.56;64.47
80180;BME280;69505;52.134;5.438;2023-06-10T03:02:03;101666.88;;;16.51;64.04
80180;BME280;69505;52.134;5.438;2023-06-10T03:04:30;101659.25;;;16.47;64.93
80180;BME280;69505;52.134;5.438;2023-06-10T03:06:56;101666.72;;;16.43;64.80
80180;BME280;69505;52.134;5.438;2023-06-10T03:09:23;101667.00;;;16.40;64.70
80180;BME280;69505;52.134;5.438;2023-06-10T03:11:50;101660.78;;;16.39;65.22
80180;BME280;69505;52.134;5.438;2023-06-10T03:14:16;101673.63;;;16.36;65.22
80180;BME280;69505;52.134;5.438;2023-06-10T03:16:43;101676.31;;;16.36;64.87
80180;BME280;69505;52.134;5.438;2023-06-10T03:19:10;101670.22;;;16.34;65.54
80180;BME280;69505;52.134;5.438;2023-06-10T03:21:37;101668.50;;;16.33;65.02
80180;BME280;69505;52.134;5.438;2023-06-10T03:24:04;101667.66;;;16.32;65.13
80180;BME280;69505;52.134;5.438;2023-06-10T03:26:30;101673.03;;;16.32;65.90
80180;BME280;69505;52.134;5.438;2023-06-10T03:28:57;101669.91;;;16.27;65.52
80180;BME280;69505;52.134;5.438;2023-06-10T03:31:24;101676.13;;;16.28;66.17
80180;BME280;69505;52.134;5.438;2023-06-10T03:33:51;101675.13;;;16.29;66.38
80180;BME280;69505;52.134;5.438;2023-06-10T03:36:17;101676.13;;;16.28;65.50
80180;BME280;69505;52.134;5.438;2023-06-10T03:38:44;101673.44;;;16.28;65.98
80180;BME280;69505;52.134;5.438;2023-06-10T03:41:10;101675.13;;;16.29;65.97
80180;BME280;69505;52.134;5.438;2023-06-10T03:43:37;101676.13;;;16.28;65.63
80180;BME280;69505;52.134;5.438;2023-06-10T03:46:05;101679.53;;;16.30;66.58
80180;BME280;69505;52.134;5.438;2023-06-10T03:48:31;101687.94;;;16.25;67.73
80180;BME280;69505;52.134;5.438;2023-06-10T03:50:58;101687.94;;;16.25;67.38
80180;BME280;69505;52.134;5.438;2023-06-10T03:53:25;101690.78;;;16.23;67.56
80180;BME280;69505;52.134;5.438;2023-06-10T03:55:52;101688.22;;;16.22;66.98
80180;BME280;69505;52.134;5.438;2023-06-10T03:58:19;101691.03;;;16.20;67.38
80180;BME280;69505;52.134;5.438;2023-06-10T04:00:45;101696.69;;;16.17;68.26
80180;BME280;69505;52.134;5.438;2023-06-10T04:03:13;101693.00;;;16.18;67.66
80180;BME280;69505;52.134;5.438;2023-06-10T04:05:42;101690.31;;;16.18;67.70
80180;BME280;69505;52.134;5.438;2023-06-10T04:08:09;101688.34;;;16.20;67.41
80180;BME280;69505;52.134;5.438;2023-06-10T04:10:36;101702.59;;;16.21;68.39
80180;BME280;69505;52.134;5.438;2023-06-10T04:13:03;101692.03;;;16.19;68.29
80180;BME280;69505;52.134;5.438;2023-06-10T04:15:30;101692.75;;;16.21;68.31
80180;BME280;69505;52.134;5.438;2023-06-10T04:17:59;101697.81;;;16.24;68.43
80180;BME280;69505;52.134;5.438;2023-06-10T04:20:27;101693.66;;;16.32;68.25
80180;BME280;69505;52.134;5.438;2023-06-10T04:22:54;101702.97;;;16.37;67.90
80180;BME280;69505;52.134;5.438;2023-06-10T04:25:21;101701.88;;;16.40;68.15
80180;BME280;69505;52.134;5.438;2023-06-10T04:27:47;101701.00;;;16.39;67.64
80180;BME280;69505;52.134;5.438;2023-06-10T04:30:15;101704.13;;;16.44;68.04
80180;BME280;69505;52.134;5.438;2023-06-10T04:32:41;101706.41;;;16.49;67.55
80180;BME280;69505;52.134;5.438;2023-06-10T04:35:11;101694.56;;;16.52;67.80
80180;BME280;69505;52.134;5.438;2023-06-10T04:37:38;101711.09;;;16.57;67.81
80180;BME280;69505;52.134;5.438;2023-06-10T04:40:05;101708.25;;;16.58;67.60
80180;BME280;69505;52.134;5.438;2023-06-10T04:42:32;101703.34;;;16.63;67.79
80180;BME280;69505;52.134;5.438;2023-06-10T04:44:58;101708.31;;;16.68;68.39
80180;BME280;69505;52.134;5.438;2023-06-10T04:47:26;101712.53;;;16.71;68.03
80180;BME280;69505;52.134;5.438;2023-06-10T04:49:53;101708.59;;;16.75;67.94
80180;BME280;69505;52.134;5.438;2023-06-10T04:52:19;101716.13;;;16.81;68.17
80180;BME280;69505;52.134;5.438;2023-06-10T04:54:46;101719.66;;;16.81;68.53
80180;BME280;69505;52.134;5.438;2023-06-10T04:57:12;101725.75;;;16.83;68.35
80180;BME280;69505;52.134;5.438;2023-06-10T04:59:39;101717.28;;;16.88;67.74
80180;BME280;69505;52.134;5.438;2023-06-10T05:02:06;101717.84;;;16.92;67.91
80180;BME280;69505;52.134;5.438;2023-06-10T05:04:32;101721.00;;;16.97;68.25
80180;BME280;69505;52.134;5.438;2023-06-10T05:06:59;101722.97;;;17.04;67.34
80180;BME280;69505;52.134;5.438;2023-06-10T05:09:25;101729.75;;;17.09;67.08
80180;BME280;69505;52.134;5.438;2023-06-10T05:11:52;101722.84;;;17.16;67.37
80180;BME280;69505;52.134;5.438;2023-06-10T05:14:20;101724.28;;;17.20;67.14
80180;BME280;69505;52.134;5.438;2023-06-10T05:16:48;101723.84;;;17.24;67.24
80180;BME280;69505;52.134;5.438;2023-06-10T05:19:14;101725.41;;;17.27;67.00
80180;BME280;69505;52.134;5.438;2023-06-10T05:21:43;101718.78;;;17.31;66.66
80180;BME280;69505;52.134;5.438;2023-06-10T05:24:10;101722.75;;;17.37;66.68
80180;BME280;69505;52.134;5.438;2023-06-10T05:26:37;101723.28;;;17.40;67.80
80180;BME280;69505;52.134;5.438;2023-06-10T05:29:05;101725.69;;;17.43;67.66
80180;BME280;69505;52.134;5.438;2023-06-10T05:31:31;101719.06;;;17.48;66.95
80180;BME280;69505;52.134;5.438;2023-06-10T05:33:58;101724.84;;;17.53;67.40
80180;BME280;69505;52.134;5.438;2023-06-10T05:36:25;101724.28;;;17.59;67.27
80180;BME280;69505;52.134;5.438;2023-06-10T05:38:53;101728.94;;;17.67;67.31
80180;BME280;69505;52.134;5.438;2023-06-10T05:41:19;101732.22;;;17.70;67.58
80180;BME280;69505;52.134;5.438;2023-06-10T05:43:47;101730.91;;;17.74;67.20
80180;BME280;69505;52.134;5.438;2023-06-10T05:46:13;101733.03;;;17.80;67.97
80180;BME280;69505;52.134;5.438;2023-06-10T05:48:40;101732.34;;;17.88;67.53
80180;BME280;69505;52.134;5.438;2023-06-10T05:51:06;101731.06;;;17.92;66.82
80180;BME280;69505;52.134;5.438;2023-06-10T05:53:33;101734.72;;;18.01;66.47
80180;BME280;69505;52.134;5.438;2023-06-10T05:56:00;101729.59;;;18.08;66.72
80180;BME280;69505;52.134;5.438;2023-06-10T05:58:26;101734.28;;;18.15;65.60
80180;BME280;69505;52.134;5.438;2023-06-10T06:00:53;101727.16;;;18.24;65.00
80180;BME280;69505;52.134;5.438;2023-06-10T06:03:20;101728.44;;;18.30;65.01
80180;BME280;69505;52.134;5.438;2023-06-10T06:05:46;101723.44;;;18.35;64.86
80180;BME280;69505;52.134;5.438;2023-06-10T06:08:13;101733.47;;;18.42;65.79
80180;BME280;69505;52.134;5.438;2023-06-10T06:10:46;101727.66;;;18.47;66.02
80180;BME280;69505;52.134;5.438;2023-06-10T06:13:14;101727.06;;;18.53;65.07
80180;BME280;69505;52.134;5.438;2023-06-10T06:15:40;101734.53;;;18.59;64.33
80180;BME280;69505;52.134;5.438;2023-06-10T06:18:07;101728.25;;;18.69;64.51
80180;BME280;69505;52.134;5.438;2023-06-10T06:20:34;101729.38;;;18.76;63.53
80180;BME280;69505;52.134;5.438;2023-06-10T06:23:00;101729.50;;;18.84;64.08
80180;BME280;69505;52.134;5.438;2023-06-10T06:25:27;101730.56;;;18.91;63.21
80180;BME280;69505;52.134;5.438;2023-06-10T06:27:54;101729.69;;;19.00;63.21
80180;BME280;69505;52.134;5.438;2023-06-10T06:30:21;101719.28;;;19.05;62.82
80180;BME280;69505;52.134;5.438;2023-06-10T06:32:47;101725.94;;;19.11;63.40
80180;BME280;69505;52.134;5.438;2023-06-10T06:35:14;101717.94;;;19.19;62.50
80180;BME280;69505;52.134;5.438;2023-06-10T06:37:40;101720.69;;;19.27;62.13
80180;BME280;69505;52.134;5.438;2023-06-10T06:40:07;101728.31;;;19.32;62.52
80180;BME280;69505;52.134;5.438;2023-06-10T06:42:34;101722.00;;;19.41;61.71
80180;BME280;69505;52.134;5.438;2023-06-10T06:45:01;101724.63;;;19.51;61.93
80180;BME280;69505;52.134;5.438;2023-06-10T06:47:28;101721.47;;;19.56;61.43
80180;BME280;69505;52.134;5.438;2023-06-10T06:49:54;101727.03;;;19.72;60.49
80180;BME280;69505;52.134;5.438;2023-06-10T06:52:21;101720.84;;;19.80;60.80
80180;BME280;69505;52.134;5.438;2023-06-10T06:54:48;101726.28;;;19.88;59.40
80180;BME280;69505;52.134;5.438;2023-06-10T06:57:15;101721.75;;;19.89;60.32
80180;BME280;69505;52.134;5.438;2023-06-10T06:59:42;101728.56;;;20.01;59.93
80180;BME280;69505;52.134;5.438;2023-06-10T07:02:08;101714.84;;;20.12;59.88
80180;BME280;69505;52.134;5.438;2023-06-10T07:04:36;101726.66;;;20.19;60.53
80180;BME280;69505;52.134;5.438;2023-06-10T07:07:04;101730.75;;;20.23;59.20
80180;BME280;69505;52.134;5.438;2023-06-10T07:09:31;101735.53;;;20.38;59.39
80180;BME280;69505;52.134;5.438;2023-06-10T07:11:57;101732.56;;;20.49;58.83
80180;BME280;69505;52.134;5.438;2023-06-10T07:14:24;101729.63;;;20.60;57.80
80180;BME280;69505;52.134;5.438;2023-06-10T07:16:51;101736.06;;;20.67;57.07
80180;BME280;69505;52.134;5.438;2023-06-10T07:19:17;101738.94;;;20.74;57.13
80180;BME280;69505;52.134;5.438;2023-06-10T07:21:44;101742.19;;;20.78;58.21
80180;BME280;69505;52.134;5.438;2023-06-10T07:24:11;101728.34;;;20.89;56.75
80180;BME280;69505;52.134;5.438;2023-06-10T07:26:38;101729.69;;;21.60;55.48
80180;BME280;69505;52.134;5.438;2023-06-10T07:29:04;101732.94;;;23.93;50.34
80180;BME280;69505;52.134;5.438;2023-06-10T07:31:31;101723.34;;;26.08;44.40
80180;BME280;69505;52.134;5.438;2023-06-10T07:33:57;101729.59;;;26.79;40.89
80180;BME280;69505;52.134;5.438;2023-06-10T07:36:24;101729.41;;;27.88;39.11
80180;BME280;69505;52.134;5.438;2023-06-10T07:38:54;101725.34;;;28.96;38.38
80180;BME280;69505;52.134;5.438;2023-06-10T07:41:23;101725.88;;;29.75;35.45
80180;BME280;69505;52.134;5.438;2023-06-10T07:43:53;101730.47;;;30.62;34.70
80180;BME280;69505;52.134;5.438;2023-06-10T07:46:22;101726.25;;;30.96;33.02
80180;BME280;69505;52.134;5.438;2023-06-10T07:48:49;101732.75;;;31.13;32.83
80180;BME280;69505;52.134;5.438;2023-06-10T07:51:16;101732.25;;;31.05;32.32
80180;BME280;69505;52.134;5.438;2023-06-10T07:53:43;101745.56;;;31.85;32.40
80180;BME280;69505;52.134;5.438;2023-06-10T07:56:09;101733.84;;;32.49;31.40
80180;BME280;69505;52.134;5.438;2023-06-10T07:58:36;101735.13;;;32.70;30.93
80180;BME280;69505;52.134;5.438;2023-06-10T08:01:02;101733.22;;;32.99;30.26
80180;BME280;69505;52.134;5.438;2023-06-10T08:03:29;101731.50;;;32.69;31.02
80180;BME280;69505;52.134;5.438;2023-06-10T08:05:56;101735.47;;;33.02;30.24
80180;BME280;69505;52.134;5.438;2023-06-10T08:08:22;101734.47;;;33.37;29.91
80180;BME280;69505;52.134;5.438;2023-06-10T08:10:49;101734.41;;;33.66;29.20
80180;BME280;69505;52.134;5.438;2023-06-10T08:13:16;101734.47;;;33.37;29.79
80180;BME280;69505;52.134;5.438;2023-06-10T08:15:42;101731.25;;;33.11;30.31
80180;BME280;69505;52.134;5.438;2023-06-10T08:18:09;101732.91;;;33.41;28.88
80180;BME280;69505;52.134;5.438;2023-06-10T08:20:36;101732.63;;;33.60;29.88
80180;BME280;69505;52.134;5.438;2023-06-10T08:23:02;101729.78;;;34.05;29.37
80180;BME280;69505;52.134;5.438;2023-06-10T08:25:29;101735.09;;;34.29;28.26
80180;BME280;69505;52.134;5.438;2023-06-10T08:27:55;101729.94;;;34.15;29.87
80180;BME280;69505;52.134;5.438;2023-06-10T08:30:24;101720.75;;;33.93;28.68
80180;BME280;69505;52.134;5.438;2023-06-10T08:32:50;101731.69;;;34.05;29.07
80180;BME280;69505;52.134;5.438;2023-06-10T08:35:18;101735.16;;;34.34;29.27
80180;BME280;69505;52.134;5.438;2023-06-10T08:37:45;101724.13;;;33.78;27.76
80180;BME280;69505;52.134;5.438;2023-06-10T08:40:12;101729.13;;;33.98;28.20
80180;BME280;69505;52.134;5.438;2023-06-10T08:45:30;101730.09;;;34.09;27.88
80180;BME280;69505;52.134;5.438;2023-06-10T08:48:05;101728.28;;;34.36;30.05
80180;BME280;69505;52.134;5.438;2023-06-10T08:50:37;101731.50;;;34.28;28.74
80180;BME280;69505;52.134;5.438;2023-06-10T08:53:05;101729.25;;;34.25;28.21
80180;BME280;69505;52.134;5.438;2023-06-10T08:55:52;101732.22;;;34.41;27.64
80180;BME280;69505;52.134;5.438;2023-06-10T08:58:20;101732.50;;;33.83;27.04
80180;BME280;69505;52.134;5.438;2023-06-10T09:00:47;101728.94;;;34.05;28.05
80180;BME280;69505;52.134;5.438;2023-06-10T09:03:13;101731.00;;;34.53;27.58
80180;BME280;69505;52.134;5.438;2023-06-10T09:05:41;101725.94;;;34.67;27.22
80180;BME280;69505;52.134;5.438;2023-06-10T09:08:08;101726.56;;;34.52;27.09
80180;BME280;69505;52.134;5.438;2023-06-10T09:10:36;101734.41;;;34.39;27.76
80180;BME280;69505;52.134;5.438;2023-06-10T09:13:03;101728.19;;;34.48;27.18
80180;BME280;69505;52.134;5.438;2023-06-10T09:15:29;101735.94;;;34.29;27.31
80180;BME280;69505;52.134;5.438;2023-06-10T09:17:56;101729.75;;;34.22;28.17
80180;BME280;69505;52.134;5.438;2023-06-10T09:20:23;101732.25;;;34.46;28.48
80180;BME280;69505;52.134;5.438;2023-06-10T09:22:49;101730.38;;;34.46;28.61
80180;BME280;69505;52.134;5.438;2023-06-10T09:25:16;101730.34;;;34.24;26.81
80180;BME280;69505;52.134;5.438;2023-06-10T09:27:48;101726.81;;;34.12;27.19
80180;BME280;69505;52.134;5.438;2023-06-10T09:30:27;101726.34;;;33.47;29.29
80180;BME280;69505;52.134;5.438;2023-06-10T09:32:57;101726.03;;;33.94;28.95
80180;BME280;69505;52.134;5.438;2023-06-10T09:35:28;101720.94;;;33.86;27.04
80180;BME280;69505;52.134;5.438;2023-06-10T09:37:59;101724.81;;;33.68;28.98
80180;BME280;69505;52.134;5.438;2023-06-10T09:40:26;101729.84;;;33.26;27.60
80180;BME280;69505;52.134;5.438;2023-06-10T09:43:00;101717.94;;;33.37;27.44
80180;BME280;69505;52.134;5.438;2023-06-10T09:45:30;101727.28;;;33.36;27.93
80180;BME280;69505;52.134;5.438;2023-06-10T09:48:00;101723.69;;;33.07;28.36
80180;BME280;69505;52.134;5.438;2023-06-10T09:50:27;101717.78;;;33.44;28.06
80180;BME280;69505;52.134;5.438;2023-06-10T09:52:54;101718.59;;;33.44;27.84
80180;BME280;69505;52.134;5.438;2023-06-10T09:55:21;101710.78;;;33.07;27.67
80180;BME280;69505;52.134;5.438;2023-06-10T09:57:53;101716.19;;;33.31;27.73
80180;BME280;69505;52.134;5.438;2023-06-10T10:00:22;101720.81;;;33.13;27.66
80180;BME280;69505;52.134;5.438;2023-06-10T10:02:50;101717.50;;;32.71;26.67
80180;BME280;69505;52.134;5.438;2023-06-10T10:05:21;101721.66;;;32.45;27.63
80180;BME280;69505;52.134;5.438;2023-06-10T10:07:49;101708.94;;;32.84;27.92
80180;BME280;69505;52.134;5.438;2023-06-10T10:10:17;101709.47;;;33.10;26.76
80180;BME280;69505;52.134;5.438;2023-06-10T10:12:46;101718.47;;;32.76;27.53
80180;BME280;69505;52.134;5.438;2023-06-10T10:15:16;101706.66;;;32.64;26.59
80180;BME280;69505;52.134;5.438;2023-06-10T10:17:47;101707.72;;;32.63;26.96
80180;BME280;69505;52.134;5.438;2023-06-10T10:20:17;101702.41;;;32.73;26.20
80180;BME280;69505;52.134;5.438;2023-06-10T10:22:47;101700.47;;;32.57;28.84
80180;BME280;69505;52.134;5.438;2023-06-10T10:25:16;101702.66;;;33.01;27.97
80180;BME280;69505;52.134;5.438;2023-06-10T10:28:02;101698.41;;;32.64;26.45
80180;BME280;69505;52.134;5.438;2023-06-10T10:30:39;101699.22;;;32.65;26.47
80180;BME280;69505;52.134;5.438;2023-06-10T10:33:18;101698.41;;;32.93;25.79
80180;BME280;69505;52.134;5.438;2023-06-10T10:35:46;101698.19;;;33.11;25.29
80180;BME280;69505;52.134;5.438;2023-06-10T10:38:13;101688.47;;;32.92;26.94
80180;BME280;69505;52.134;5.438;2023-06-10T10:40:41;101694.97;;;32.45;26.44
80180;BME280;69505;52.134;5.438;2023-06-10T10:43:10;101686.75;;;32.74;26.03
80180;BME280;69505;52.134;5.438;2023-06-10T10:45:37;101686.66;;;32.97;25.60
80180;BME280;69505;52.134;5.438;2023-06-10T10:48:09;101690.03;;;32.88;25.71
80180;BME280;69505;52.134;5.438;2023-06-10T10:50:38;101683.84;;;32.81;25.77
80180;BME280;69505;52.134;5.438;2023-06-10T10:53:05;101682.38;;;32.90;25.39
80180;BME280;69505;52.134;5.438;2023-06-10T10:55:33;101676.97;;;32.95;25.37
80180;BME280;69505;52.134;5.438;2023-06-10T10:58:07;101682.09;;;32.74;25.39
80180;BME280;69505;52.134;5.438;2023-06-10T11:00:43;101676.69;;;32.96;25.22
80180;BME280;69505;52.134;5.438;2023-06-10T11:03:15;101685.13;;;33.19;24.35
80180;BME280;69505;52.134;5.438;2023-06-10T11:05:47;101685.13;;;32.90;24.92
80180;BME280;69505;52.134;5.438;2023-06-10T11:11:18;101668.03;;;32.59;25.25
80180;BME280;69505;52.134;5.438;2023-06-10T11:13:58;101681.22;;;32.57;24.62
80180;BME280;69505;52.134;5.438;2023-06-10T11:16:28;101676.00;;;32.72;25.10
80180;BME280;69505;52.134;5.438;2023-06-10T11:18:56;101669.81;;;32.82;24.59
80180;BME280;69505;52.134;5.438;2023-06-10T11:21:24;101668.59;;;33.19;24.57
80180;BME280;69505;52.134;5.438;2023-06-10T11:23:57;101660.69;;;33.22;24.64
80180;BME280;69505;52.134;5.438;2023-06-10T11:29:09;101659.97;;;33.32;23.51
80180;BME280;69505;52.134;5.438;2023-06-10T11:31:48;101661.56;;;33.28;25.00
80180;BME280;69505;52.134;5.438;2023-06-10T11:34:21;101667.25;;;33.21;25.10
80180;BME280;69505;52.134;5.438;2023-06-10T11:36:50;101666.75;;;33.41;24.00
80180;BME280;69505;52.134;5.438;2023-06-10T11:39:18;101654.41;;;33.61;23.92
80180;BME280;69505;52.134;5.438;2023-06-10T11:41:45;101655.72;;;33.75;24.23
80180;BME280;69505;52.134;5.438;2023-06-10T11:44:13;101660.31;;;33.52;23.77
80180;BME280;69505;52.134;5.438;2023-06-10T11:46:47;101656.22;;;33.38;25.06
80180;BME280;69505;52.134;5.438;2023-06-10T11:49:14;101655.16;;;33.39;23.83
80180;BME280;69505;52.134;5.438;2023-06-10T11:51:41;101651.53;;;33.55;24.38
80180;BME280;69505;52.134;5.438;2023-06-10T11:54:15;101650.56;;;33.62;23.05
80180;BME280;69505;52.134;5.438;2023-06-10T11:56:42;101639.88;;;33.65;22.83
80180;BME280;69505;52.134;5.438;2023-06-10T11:59:09;101648.66;;;33.62;23.13
80180;BME280;69505;52.134;5.438;2023-06-10T12:01:37;101635.50;;;33.69;23.97
80180;BME280;69505;52.134;5.438;2023-06-10T12:04:09;101648.28;;;33.75;23.90
80180;BME280;69505;52.134;5.438;2023-06-10T12:06:45;101637.69;;;33.67;23.02
80180;BME280;69505;52.134;5.438;2023-06-10T12:12:04;101639.38;;;33.90;23.72
80180;BME280;69505;52.134;5.438;2023-06-10T12:15:10;101633.97;;;34.17;23.85
80180;BME280;69505;52.134;5.438;2023-06-10T12:17:37;101627.47;;;34.07;22.19
80180;BME280;69505;52.134;5.438;2023-06-10T12:20:07;101620.22;;;34.23;24.13
80180;BME280;69505;52.134;5.438;2023-06-10T12:22:46;101618.91;;;34.25;23.15
80180;BME280;69505;52.134;5.438;2023-06-10T12:25:13;101616.03;;;34.15;22.80
80180;BME280;69505;52.134;5.438;2023-06-10T12:27:50;101609.44;;;33.99;22.83
80180;BME280;69505;52.134;5.438;2023-06-10T12:30:20;101610.91;;;34.07;22.74
80180;BME280;69505;52.134;5.438;2023-06-10T12:32:47;101610.91;;;34.07;23.23
80180;BME280;69505;52.134;5.438;2023-06-10T12:35:18;101609.31;;;33.89;23.36
80180;BME280;69505;52.134;5.438;2023-06-10T12:37:59;101610.78;;;33.96;23.04
80180;BME280;69505;52.134;5.438;2023-06-10T12:40:31;101612.41;;;34.36;23.21
80180;BME280;69505;52.134;5.438;2023-06-10T12:42:59;101615.88;;;34.27;23.16
80180;BME280;69505;52.134;5.438;2023-06-10T12:45:31;101610.09;;;34.28;23.49
80180;BME280;69505;52.134;5.438;2023-06-10T12:48:24;101607.66;;;34.32;22.84
80180;BME280;69505;52.134;5.438;2023-06-10T12:50:56;101615.31;;;34.52;23.27
80180;BME280;69505;52.134;5.438;2023-06-10T12:53:24;101612.56;;;34.52;22.48
80180;BME280;69505;52.134;5.438;2023-06-10T12:55:53;101606.75;;;34.48;23.09
80180;BME280;69505;52.134;5.438;2023-06-10T12:58:22;101607.81;;;34.47;22.37
80180;BME280;69505;52.134;5.438;2023-06-10T13:00:49;101615.78;;;34.66;21.77
80180;BME280;69505;52.134;5.438;2023-06-10T13:03:19;101610.91;;;34.51;21.65
80180;BME280;69505;52.134;5.438;2023-06-10T13:05:47;101611.94;;;34.45;22.57
80180;BME280;69505;52.134;5.438;2023-06-10T13:08:13;101607.25;;;34.45;22.35
80180;BME280;69505;52.134;5.438;2023-06-10T13:10:40;101601.03;;;34.33;22.29
80180;BME280;69505;52.134;5.438;2023-06-10T13:13:06;101607.59;;;34.54;21.95